sensor_id;sensor_type;location;lat;lon;timestamp;temperature;humidity
1704;DHT22;849;48.780;9.216;2024-01-30T00:02:41;5.90;99.90
1704;DHT22;849;48.780;9.216;2024-01-30T00:05:27;5.80;99.90
1704;DHT22;849;48.780;9.216;2024-01-30T00:08:11;5.80;99.90
1704;DHT22;849;48.780;9.216;2024-01-30T00:10:55;5.80;99.90
1704;DHT22;849;48.780;9.216;2024-01-30T00:13:39;5.80;99.90
1704;DHT22;849;48.780;9.216;2024-01-30T00:16:24;5.80;99.90
1704;DHT22;849;48.780;9.216;2024-01-30T00:19:08;5.80;99.90
1704;DHT22;849;48.780;9.216;2024-01-30T00:21:52;5.80;99.90
1704;DHT22;849;48.780;9.216;2024-01-30T00:24:37;5.80;99.90
1704;DHT22;849;48.780;9.216;2024-01-30T00:27:21;5.80;99.90
1704;DHT22;849;48.780;9.216;2024-01-30T00:30:05;5.80;99.90
1704;DHT22;849;48.780;9.216;2024-01-30T00:32:51;5.70;99.90
1704;DHT22;849;48.780;9.216;2024-01-30T00:35:35;5.70;99.90
1704;DHT22;849;48.780;9.216;2024-01-30T00:38:19;5.70;99.90
1704;DHT22;849;48.780;9.216;2024-01-30T00:41:03;5.70;99.90
1704;DHT22;849;48.780;9.216;2024-01-30T00:43:48;5.70;99.90
1704;DHT22;849;48.780;9.216;2024-01-30T00:46:32;5.70;99.90
1704;DHT22;849;48.780;9.216;2024-01-30T00:49:16;5.70;99.90
1704;DHT22;849;48.780;9.216;2024-01-30T00:52:00;5.70;99.90
1704;DHT22;849;48.780;9.216;2024-01-30T00:54:44;5.70;99.90
1704;DHT22;849;48.780;9.216;2024-01-30T00:57:28;5.80;99.90
1704;DHT22;849;48.780;9.216;2024-01-30T01:00:13;5.70;99.90
1704;DHT22;849;48.780;9.216;2024-01-30T01:03:01;5.70;99.90
1704;DHT22;849;48.780;9.216;2024-01-30T01:05:45;5.70;99.90
1704;DHT22;849;48.780;9.216;2024-01-30T01:08:29;5.60;99.90
1704;DHT22;849;48.780;9.216;2024-01-30T01:11:14;5.60;99.90
1704;DHT22;849;48.780;9.216;2024-01-30T01:13:58;5.60;99.90
1704;DHT22;849;48.780;9.216;2024-01-30T01:16:42;5.60;99.90
1704;DHT22;849;48.780;9.216;2024-01-30T01:19:26;5.60;99.90
1704;DHT22;849;48.780;9.216;2024-01-30T01:22:11;5.60;99.90
1704;DHT22;849;48.780;9.216;2024-01-30T01:24:55;5.60;99.90
1704;DHT22;849;48.780;9.216;2024-01-30T01:27:38;5.60;99.90
1704;DHT22;849;48.780;9.216;2024-01-30T01:30:25;5.60;99.90
1704;DHT22;849;48.780;9.216;2024-01-30T01:33:10;5.60;99.90
1704;DHT22;849;48.780;9.216;2024-01-30T01:35:54;5.60;99.90
1704;DHT22;849;48.780;9.216;2024-01-30T01:38:38;5.60;99.90
1704;DHT22;849;48.780;9.216;2024-01-30T01:41:22;5.60;99.90
1704;DHT22;849;48.780;9.216;2024-01-30T01:44:06;5.60;99.90
1704;DHT22;849;48.780;9.216;2024-01-30T01:46:51;5.60;99.90
1704;DHT22;849;48.780;9.216;2024-01-30T01:49:36;5.60;99.90
1704;DHT22;849;48.780;9.216;2024-01-30T01:52:20;5.60;99.90
1704;DHT22;849;48.780;9.216;2024-01-30T01:55:04;5.60;99.90
1704;DHT22;849;48.780;9.216;2024-01-30T01:57:49;5.60;99.90
1704;DHT22;849;48.780;9.216;2024-01-30T02:00:34;5.50;99.90
1704;DHT22;849;48.780;9.216;2024-01-30T02:03:19;5.50;99.90
1704;DHT22;849;48.780;9.216;2024-01-30T02:06:05;5.50;99.90
1704;DHT22;849;48.780;9.216;2024-01-30T02:08:49;5.50;99.90
1704;DHT22;849;48.780;9.216;2024-01-30T02:11:33;5.50;99.90
1704;DHT22;849;48.780;9.216;2024-01-30T02:14:18;5.50;99.90
1704;DHT22;849;48.780;9.216;2024-01-30T02:17:02;5.40;99.90
1704;DHT22;849;48.780;9.216;2024-01-30T02:19:45;5.40;99.90
1704;DHT22;849;48.780;9.216;2024-01-30T02:22:32;5.40;99.90
1704;DHT22;849;48.780;9.216;2024-01-30T02:25:17;5.40;99.90
1704;DHT22;849;48.780;9.216;2024-01-30T02:28:01;5.40;99.90
1704;DHT22;849;48.780;9.216;2024-01-30T02:30:46;5.40;99.90
1704;DHT22;849;48.780;9.216;2024-01-30T02:33:30;5.40;99.90
1704;DHT22;849;48.780;9.216;2024-01-30T02:36:15;5.30;99.90
1704;DHT22;849;48.780;9.216;2024-01-30T02:38:59;5.20;99.90
1704;DHT22;849;48.780;9.216;2024-01-30T02:41:43;5.20;99.90
1704;DHT22;849;48.780;9.216;2024-01-30T02:44:27;5.20;99.90
1704;DHT22;849;48.780;9.216;2024-01-30T02:47:11;5.20;99.90
1704;DHT22;849;48.780;9.216;2024-01-30T02:49:55;5.20;99.90
1704;DHT22;849;48.780;9.216;2024-01-30T02:52:39;5.20;99.90
1704;DHT22;849;48.780;9.216;2024-01-30T02:55:23;5.20;99.90
1704;DHT22;849;48.780;9.216;2024-01-30T02:58:07;5.20;99.90
1704;DHT22;849;48.780;9.216;2024-01-30T03:00:51;5.20;99.90
1704;DHT22;849;48.780;9.216;2024-01-30T03:03:35;5.20;99.90
1704;DHT22;849;48.780;9.216;2024-01-30T03:06:20;5.10;99.90
1704;DHT22;849;48.780;9.216;2024-01-30T03:09:04;5.10;99.90
1704;DHT22;849;48.780;9.216;2024-01-30T03:11:48;5.10;99.90
1704;DHT22;849;48.780;9.216;2024-01-30T03:14:32;5.20;99.90
1704;DHT22;849;48.780;9.216;2024-01-30T03:17:17;5.20;99.90
1704;DHT22;849;48.780;9.216;2024-01-30T03:20:01;5.10;99.90
1704;DHT22;849;48.780;9.216;2024-01-30T03:22:45;5.10;99.90
1704;DHT22;849;48.780;9.216;2024-01-30T03:25:29;5.10;99.90
1704;DHT22;849;48.780;9.216;2024-01-30T03:28:13;5.10;99.90
1704;DHT22;849;48.780;9.216;2024-01-30T03:30:57;5.10;99.90
1704;DHT22;849;48.780;9.216;2024-01-30T03:33:41;5.10;99.90
1704;DHT22;849;48.780;9.216;2024-01-30T03:36:25;5.10;99.90
1704;DHT22;849;48.780;9.216;2024-01-30T03:39:09;5.00;99.90
1704;DHT22;849;48.780;9.216;2024-01-30T03:41:53;5.00;99.90
1704;DHT22;849;48.780;9.216;2024-01-30T03:44:37;5.00;99.90
1704;DHT22;849;48.780;9.216;2024-01-30T03:47:21;5.00;99.90
1704;DHT22;849;48.780;9.216;2024-01-30T03:50:06;5.00;99.90
1704;DHT22;849;48.780;9.216;2024-01-30T03:52:50;4.90;99.90
1704;DHT22;849;48.780;9.216;2024-01-30T03:55:34;4.90;99.90
1704;DHT22;849;48.780;9.216;2024-01-30T03:58:19;4.90;99.90
1704;DHT22;849;48.780;9.216;2024-01-30T04:01:03;4.90;99.90
1704;DHT22;849;48.780;9.216;2024-01-30T04:03:48;4.90;99.90
1704;DHT22;849;48.780;9.216;2024-01-30T04:06:32;4.90;99.90
1704;DHT22;849;48.780;9.216;2024-01-30T04:09:16;4.90;99.90
1704;DHT22;849;48.780;9.216;2024-01-30T04:12:00;4.90;99.90
1704;DHT22;849;48.780;9.216;2024-01-30T04:14:47;4.90;99.90
1704;DHT22;849;48.780;9.216;2024-01-30T04:17:31;4.90;99.90
1704;DHT22;849;48.780;9.216;2024-01-30T04:20:15;4.90;99.90
1704;DHT22;849;48.780;9.216;2024-01-30T04:23:00;4.90;99.90
1704;DHT22;849;48.780;9.216;2024-01-30T04:25:44;4.90;99.90
1704;DHT22;849;48.780;9.216;2024-01-30T04:28:28;4.80;99.90
1704;DHT22;849;48.780;9.216;2024-01-30T04:31:12;4.80;99.90
1704;DHT22;849;48.780;9.216;2024-01-30T04:33:56;4.80;99.90
1704;DHT22;849;48.780;9.216;2024-01-30T04:36:44;4.80;99.90
1704;DHT22;849;48.780;9.216;2024-01-30T04:39:28;4.80;99.90
1704;DHT22;849;48.780;9.216;2024-01-30T04:42:12;4.70;99.90
1704;DHT22;849;48.780;9.216;2024-01-30T04:44:56;4.80;99.90
1704;DHT22;849;48.780;9.216;2024-01-30T04:47:40;4.80;99.90
1704;DHT22;849;48.780;9.216;2024-01-30T04:50:24;4.70;99.90
1704;DHT22;849;48.780;9.216;2024-01-30T04:53:10;4.70;99.90
1704;DHT22;849;48.780;9.216;2024-01-30T04:55:54;4.80;99.90
1704;DHT22;849;48.780;9.216;2024-01-30T04:58:38;4.70;99.90
1704;DHT22;849;48.780;9.216;2024-01-30T05:01:22;4.70;99.90
1704;DHT22;849;48.780;9.216;2024-01-30T05:04:09;4.70;99.90
1704;DHT22;849;48.780;9.216;2024-01-30T05:06:54;4.70;99.90
1704;DHT22;849;48.780;9.216;2024-01-30T05:09:38;4.70;99.90
1704;DHT22;849;48.780;9.216;2024-01-30T05:12:22;4.70;99.90
1704;DHT22;849;48.780;9.216;2024-01-30T05:15:06;4.60;99.90
1704;DHT22;849;48.780;9.216;2024-01-30T05:17:50;4.60;99.90
1704;DHT22;849;48.780;9.216;2024-01-30T05:20:35;4.60;99.90
1704;DHT22;849;48.780;9.216;2024-01-30T05:23:19;4.60;99.90
1704;DHT22;849;48.780;9.216;2024-01-30T05:26:03;4.60;99.90
1704;DHT22;849;48.780;9.216;2024-01-30T05:28:47;4.60;99.90
1704;DHT22;849;48.780;9.216;2024-01-30T05:31:32;4.50;99.90
1704;DHT22;849;48.780;9.216;2024-01-30T05:34:16;4.50;99.90
1704;DHT22;849;48.780;9.216;2024-01-30T05:37:01;4.50;99.90
1704;DHT22;849;48.780;9.216;2024-01-30T05:39:45;4.50;99.90
1704;DHT22;849;48.780;9.216;2024-01-30T05:42:29;4.50;99.90
1704;DHT22;849;48.780;9.216;2024-01-30T05:45:13;4.50;99.90
1704;DHT22;849;48.780;9.216;2024-01-30T05:47:57;4.50;99.90
1704;DHT22;849;48.780;9.216;2024-01-30T05:50:41;4.50;99.90
1704;DHT22;849;48.780;9.216;2024-01-30T05:53:25;4.50;99.90
1704;DHT22;849;48.780;9.216;2024-01-30T05:56:09;4.50;99.90
1704;DHT22;849;48.780;9.216;2024-01-30T05:58:53;4.50;99.90
1704;DHT22;849;48.780;9.216;2024-01-30T06:01:37;4.50;99.90
1704;DHT22;849;48.780;9.216;2024-01-30T06:04:21;4.50;99.90
1704;DHT22;849;48.780;9.216;2024-01-30T06:07:04;4.50;99.90
1704;DHT22;849;48.780;9.216;2024-01-30T06:09:50;4.50;99.90
1704;DHT22;849;48.780;9.216;2024-01-30T06:12:34;4.50;99.90
1704;DHT22;849;48.780;9.216;2024-01-30T06:15:18;4.50;99.90
1704;DHT22;849;48.780;9.216;2024-01-30T06:18:03;4.50;99.90
1704;DHT22;849;48.780;9.216;2024-01-30T06:20:47;4.50;99.90
1704;DHT22;849;48.780;9.216;2024-01-30T06:23:31;4.50;99.90
1704;DHT22;849;48.780;9.216;2024-01-30T06:26:15;4.50;99.90
1704;DHT22;849;48.780;9.216;2024-01-30T06:28:59;4.50;99.90
1704;DHT22;849;48.780;9.216;2024-01-30T06:31:43;4.40;99.90
1704;DHT22;849;48.780;9.216;2024-01-30T06:34:27;4.50;99.90
1704;DHT22;849;48.780;9.216;2024-01-30T06:37:11;4.50;99.90
1704;DHT22;849;48.780;9.216;2024-01-30T06:39:55;4.50;99.90
1704;DHT22;849;48.780;9.216;2024-01-30T06:42:40;4.50;99.90
1704;DHT22;849;48.780;9.216;2024-01-30T06:45:24;4.40;99.90
1704;DHT22;849;48.780;9.216;2024-01-30T06:48:08;4.40;99.90
1704;DHT22;849;48.780;9.216;2024-01-30T06:50:55;4.40;99.90
1704;DHT22;849;48.780;9.216;2024-01-30T06:53:39;4.30;99.90
1704;DHT22;849;48.780;9.216;2024-01-30T06:56:23;4.30;99.90
1704;DHT22;849;48.780;9.216;2024-01-30T06:59:07;4.40;99.90
1704;DHT22;849;48.780;9.216;2024-01-30T07:01:52;4.40;99.90
1704;DHT22;849;48.780;9.216;2024-01-30T07:04:36;4.40;99.90
1704;DHT22;849;48.780;9.216;2024-01-30T07:07:25;4.40;99.90
1704;DHT22;849;48.780;9.216;2024-01-30T07:10:09;4.40;99.90
1704;DHT22;849;48.780;9.216;2024-01-30T07:12:53;4.40;99.90
1704;DHT22;849;48.780;9.216;2024-01-30T07:15:38;4.40;99.90
1704;DHT22;849;48.780;9.216;2024-01-30T07:18:22;4.40;99.90
1704;DHT22;849;48.780;9.216;2024-01-30T07:21:06;4.40;99.90
1704;DHT22;849;48.780;9.216;2024-01-30T07:23:50;4.40;99.90
1704;DHT22;849;48.780;9.216;2024-01-30T07:26:34;4.50;99.90
1704;DHT22;849;48.780;9.216;2024-01-30T07:29:19;4.50;99.90
1704;DHT22;849;48.780;9.216;2024-01-30T07:32:04;4.50;99.90
1704;DHT22;849;48.780;9.216;2024-01-30T07:34:48;4.50;99.90
1704;DHT22;849;48.780;9.216;2024-01-30T07:37:32;4.50;99.90
1704;DHT22;849;48.780;9.216;2024-01-30T07:40:17;4.50;99.90
1704;DHT22;849;48.780;9.216;2024-01-30T07:43:01;4.60;99.90
1704;DHT22;849;48.780;9.216;2024-01-30T07:45:47;4.50;99.90
1704;DHT22;849;48.780;9.216;2024-01-30T07:48:31;4.60;99.90
1704;DHT22;849;48.780;9.216;2024-01-30T07:51:15;4.60;99.90
1704;DHT22;849;48.780;9.216;2024-01-30T07:53:59;4.60;99.90
1704;DHT22;849;48.780;9.216;2024-01-30T07:56:44;4.70;99.90
1704;DHT22;849;48.780;9.216;2024-01-30T07:59:28;4.70;99.90
1704;DHT22;849;48.780;9.216;2024-01-30T08:02:12;4.80;99.90
1704;DHT22;849;48.780;9.216;2024-01-30T08:04:57;4.80;99.90
1704;DHT22;849;48.780;9.216;2024-01-30T08:07:41;4.80;99.90
1704;DHT22;849;48.780;9.216;2024-01-30T08:10:26;4.80;99.90
1704;DHT22;849;48.780;9.216;2024-01-30T08:13:10;4.90;99.90
1704;DHT22;849;48.780;9.216;2024-01-30T08:15:54;4.90;99.90
1704;DHT22;849;48.780;9.216;2024-01-30T08:18:38;5.00;99.90
1704;DHT22;849;48.780;9.216;2024-01-30T08:21:23;5.00;99.90
1704;DHT22;849;48.780;9.216;2024-01-30T08:24:07;5.00;99.90
1704;DHT22;849;48.780;9.216;2024-01-30T08:26:52;5.10;99.90
1704;DHT22;849;48.780;9.216;2024-01-30T08:29:36;5.20;99.90
1704;DHT22;849;48.780;9.216;2024-01-30T08:32:20;5.20;99.90
1704;DHT22;849;48.780;9.216;2024-01-30T08:35:04;5.30;99.90
1704;DHT22;849;48.780;9.216;2024-01-30T08:37:49;5.40;99.90
1704;DHT22;849;48.780;9.216;2024-01-30T08:40:33;5.40;99.90
1704;DHT22;849;48.780;9.216;2024-01-30T08:43:17;5.50;99.90
1704;DHT22;849;48.780;9.216;2024-01-30T08:46:02;5.50;99.90
1704;DHT22;849;48.780;9.216;2024-01-30T08:48:46;5.60;99.90
1704;DHT22;849;48.780;9.216;2024-01-30T08:51:32;5.60;99.90
1704;DHT22;849;48.780;9.216;2024-01-30T08:54:16;5.70;99.90
1704;DHT22;849;48.780;9.216;2024-01-30T08:57:00;5.80;99.90
1704;DHT22;849;48.780;9.216;2024-01-30T08:59:44;5.80;99.90
1704;DHT22;849;48.780;9.216;2024-01-30T09:02:29;5.90;99.90
1704;DHT22;849;48.780;9.216;2024-01-30T09:05:13;6.00;99.90
1704;DHT22;849;48.780;9.216;2024-01-30T09:07:57;6.00;99.90
1704;DHT22;849;48.780;9.216;2024-01-30T09:10:41;6.10;99.90
1704;DHT22;849;48.780;9.216;2024-01-30T09:13:25;6.20;99.90
1704;DHT22;849;48.780;9.216;2024-01-30T09:16:09;6.20;99.90
1704;DHT22;849;48.780;9.216;2024-01-30T09:18:53;6.30;99.90
1704;DHT22;849;48.780;9.216;2024-01-30T09:21:37;6.40;99.90
1704;DHT22;849;48.780;9.216;2024-01-30T09:24:22;6.40;99.90
1704;DHT22;849;48.780;9.216;2024-01-30T09:27:06;6.50;99.90
1704;DHT22;849;48.780;9.216;2024-01-30T09:29:50;6.60;99.90
1704;DHT22;849;48.780;9.216;2024-01-30T09:32:34;6.60;99.90
1704;DHT22;849;48.780;9.216;2024-01-30T09:35:18;6.70;99.90
1704;DHT22;849;48.780;9.216;2024-01-30T09:38:02;6.70;99.90
1704;DHT22;849;48.780;9.216;2024-01-30T09:40:51;6.80;99.90
1704;DHT22;849;48.780;9.216;2024-01-30T09:43:38;6.90;99.90
1704;DHT22;849;48.780;9.216;2024-01-30T09:46:23;7.00;99.90
1704;DHT22;849;48.780;9.216;2024-01-30T09:49:11;7.00;99.90
1704;DHT22;849;48.780;9.216;2024-01-30T09:51:56;7.10;99.90
1704;DHT22;849;48.780;9.216;2024-01-30T09:54:41;7.20;99.90
1704;DHT22;849;48.780;9.216;2024-01-30T09:57:26;7.30;99.90
1704;DHT22;849;48.780;9.216;2024-01-30T10:00:10;7.40;99.90
1704;DHT22;849;48.780;9.216;2024-01-30T10:02:55;7.50;99.90
1704;DHT22;849;48.780;9.216;2024-01-30T10:05:40;7.60;99.90
1704;DHT22;849;48.780;9.216;2024-01-30T10:08:26;7.60;99.90
1704;DHT22;849;48.780;9.216;2024-01-30T10:11:10;7.70;99.90
1704;DHT22;849;48.780;9.216;2024-01-30T10:13:55;7.80;99.90
1704;DHT22;849;48.780;9.216;2024-01-30T10:16:39;8.10;99.90
1704;DHT22;849;48.780;9.216;2024-01-30T10:19:23;8.00;99.90
1704;DHT22;849;48.780;9.216;2024-01-30T10:22:07;8.10;99.90
1704;DHT22;849;48.780;9.216;2024-01-30T10:24:51;8.20;99.90
1704;DHT22;849;48.780;9.216;2024-01-30T10:27:36;8.30;99.90
1704;DHT22;849;48.780;9.216;2024-01-30T10:30:20;8.20;99.90
1704;DHT22;849;48.780;9.216;2024-01-30T10:33:04;8.30;99.90
1704;DHT22;849;48.780;9.216;2024-01-30T10:35:49;8.40;99.90
1704;DHT22;849;48.780;9.216;2024-01-30T10:38:34;8.40;99.90
1704;DHT22;849;48.780;9.216;2024-01-30T10:41:27;8.50;99.90
1704;DHT22;849;48.780;9.216;2024-01-30T10:44:11;8.60;99.90
1704;DHT22;849;48.780;9.216;2024-01-30T10:47:01;8.70;99.90
1704;DHT22;849;48.780;9.216;2024-01-30T10:49:46;8.40;99.90
1704;DHT22;849;48.780;9.216;2024-01-30T10:52:32;8.80;99.90
1704;DHT22;849;48.780;9.216;2024-01-30T10:55:18;8.90;99.90
1704;DHT22;849;48.780;9.216;2024-01-30T10:58:03;8.90;99.90
1704;DHT22;849;48.780;9.216;2024-01-30T11:00:49;9.00;99.90
1704;DHT22;849;48.780;9.216;2024-01-30T11:03:34;9.10;99.90
1704;DHT22;849;48.780;9.216;2024-01-30T11:06:24;9.20;99.90
1704;DHT22;849;48.780;9.216;2024-01-30T11:09:11;9.20;99.90
1704;DHT22;849;48.780;9.216;2024-01-30T11:11:58;9.30;99.90
1704;DHT22;849;48.780;9.216;2024-01-30T11:14:44;9.30;99.90
1704;DHT22;849;48.780;9.216;2024-01-30T11:17:28;9.40;99.90
1704;DHT22;849;48.780;9.216;2024-01-30T11:20:25;9.40;99.90
1704;DHT22;849;48.780;9.216;2024-01-30T11:23:11;9.50;99.90
1704;DHT22;849;48.780;9.216;2024-01-30T11:25:56;9.60;99.90
1704;DHT22;849;48.780;9.216;2024-01-30T11:28:41;9.60;99.90
1704;DHT22;849;48.780;9.216;2024-01-30T11:31:25;9.70;99.90
1704;DHT22;849;48.780;9.216;2024-01-30T11:34:10;9.70;99.90
1704;DHT22;849;48.780;9.216;2024-01-30T11:36:59;9.70;99.90
1704;DHT22;849;48.780;9.216;2024-01-30T11:39:46;9.80;99.90
1704;DHT22;849;48.780;9.216;2024-01-30T11:42:32;9.90;99.90
1704;DHT22;849;48.780;9.216;2024-01-30T11:45:17;9.90;99.90
1704;DHT22;849;48.780;9.216;2024-01-30T11:48:01;10.00;99.90
1704;DHT22;849;48.780;9.216;2024-01-30T11:50:47;10.10;99.90
1704;DHT22;849;48.780;9.216;2024-01-30T11:53:31;10.10;99.90
1704;DHT22;849;48.780;9.216;2024-01-30T11:56:15;10.10;99.90
1704;DHT22;849;48.780;9.216;2024-01-30T11:59:00;10.20;99.90
1704;DHT22;849;48.780;9.216;2024-01-30T12:01:44;10.20;99.90
1704;DHT22;849;48.780;9.216;2024-01-30T12:04:29;10.20;99.90
1704;DHT22;849;48.780;9.216;2024-01-30T12:07:13;10.30;99.90
1704;DHT22;849;48.780;9.216;2024-01-30T12:10:01;10.40;99.90
1704;DHT22;849;48.780;9.216;2024-01-30T12:12:49;10.40;99.90
1704;DHT22;849;48.780;9.216;2024-01-30T12:15:34;10.50;99.90
1704;DHT22;849;48.780;9.216;2024-01-30T12:18:19;10.50;99.90
1704;DHT22;849;48.780;9.216;2024-01-30T12:21:04;10.50;99.90
1704;DHT22;849;48.780;9.216;2024-01-30T12:23:48;10.60;99.90
1704;DHT22;849;48.780;9.216;2024-01-30T12:26:32;10.60;99.90
1704;DHT22;849;48.780;9.216;2024-01-30T12:29:16;10.70;99.90
1704;DHT22;849;48.780;9.216;2024-01-30T12:32:01;10.70;99.90
1704;DHT22;849;48.780;9.216;2024-01-30T12:34:45;10.80;99.90
1704;DHT22;849;48.780;9.216;2024-01-30T12:37:32;10.80;99.70
1704;DHT22;849;48.780;9.216;2024-01-30T12:40:17;10.80;99.40
1704;DHT22;849;48.780;9.216;2024-01-30T12:43:01;10.90;99.60
1704;DHT22;849;48.780;9.216;2024-01-30T12:45:47;10.90;99.60
1704;DHT22;849;48.780;9.216;2024-01-30T12:48:31;11.00;99.70
1704;DHT22;849;48.780;9.216;2024-01-30T12:51:15;11.00;99.60
1704;DHT22;849;48.780;9.216;2024-01-30T12:54:05;11.10;99.20
1704;DHT22;849;48.780;9.216;2024-01-30T12:56:49;11.10;98.70
1704;DHT22;849;48.780;9.216;2024-01-30T12:59:33;11.10;97.90
1704;DHT22;849;48.780;9.216;2024-01-30T13:02:18;11.20;97.80
1704;DHT22;849;48.780;9.216;2024-01-30T13:05:03;11.20;97.50
1704;DHT22;849;48.780;9.216;2024-01-30T13:07:48;11.20;97.00
1704;DHT22;849;48.780;9.216;2024-01-30T13:10:31;11.30;97.00
1704;DHT22;849;48.780;9.216;2024-01-30T13:13:16;11.30;96.60
1704;DHT22;849;48.780;9.216;2024-01-30T13:16:00;11.30;96.50
1704;DHT22;849;48.780;9.216;2024-01-30T13:18:44;11.40;96.10
1704;DHT22;849;48.780;9.216;2024-01-30T13:21:29;11.40;95.70
1704;DHT22;849;48.780;9.216;2024-01-30T13:24:13;11.40;95.20
1704;DHT22;849;48.780;9.216;2024-01-30T13:26:57;11.40;94.60
1704;DHT22;849;48.780;9.216;2024-01-30T13:29:41;11.50;94.60
1704;DHT22;849;48.780;9.216;2024-01-30T13:32:25;12.00;94.70
1704;DHT22;849;48.780;9.216;2024-01-30T13:35:10;11.60;94.40
1704;DHT22;849;48.780;9.216;2024-01-30T13:37:54;11.70;94.40
1704;DHT22;849;48.780;9.216;2024-01-30T13:40:39;11.70;94.40
1704;DHT22;849;48.780;9.216;2024-01-30T13:43:23;11.70;94.00
1704;DHT22;849;48.780;9.216;2024-01-30T13:46:07;11.70;93.90
1704;DHT22;849;48.780;9.216;2024-01-30T13:48:51;11.80;93.70
1704;DHT22;849;48.780;9.216;2024-01-30T13:51:36;11.80;93.60
1704;DHT22;849;48.780;9.216;2024-01-30T13:54:20;11.80;93.10
1704;DHT22;849;48.780;9.216;2024-01-30T13:57:04;11.90;93.20
1704;DHT22;849;48.780;9.216;2024-01-30T13:59:48;11.90;93.30
1704;DHT22;849;48.780;9.216;2024-01-30T14:02:32;11.90;93.30
1704;DHT22;849;48.780;9.216;2024-01-30T14:05:16;12.00;93.40
1704;DHT22;849;48.780;9.216;2024-01-30T14:08:01;11.90;93.20
1704;DHT22;849;48.780;9.216;2024-01-30T14:10:46;12.00;93.00
1704;DHT22;849;48.780;9.216;2024-01-30T14:13:30;12.00;92.80
1704;DHT22;849;48.780;9.216;2024-01-30T14:16:16;12.00;92.60
1704;DHT22;849;48.780;9.216;2024-01-30T14:19:00;12.00;92.60
1704;DHT22;849;48.780;9.216;2024-01-30T14:21:44;12.00;92.50
1704;DHT22;849;48.780;9.216;2024-01-30T14:24:28;12.00;92.30
1704;DHT22;849;48.780;9.216;2024-01-30T14:27:12;12.00;92.30
1704;DHT22;849;48.780;9.216;2024-01-30T14:29:57;11.90;92.20
1704;DHT22;849;48.780;9.216;2024-01-30T14:32:43;11.90;92.20
1704;DHT22;849;48.780;9.216;2024-01-30T14:35:28;11.90;91.80
1704;DHT22;849;48.780;9.216;2024-01-30T14:38:12;11.90;92.00
1704;DHT22;849;48.780;9.216;2024-01-30T14:40:57;11.90;91.80
1704;DHT22;849;48.780;9.216;2024-01-30T14:43:41;11.90;91.60
1704;DHT22;849;48.780;9.216;2024-01-30T14:46:25;11.90;91.40
1704;DHT22;849;48.780;9.216;2024-01-30T14:49:10;11.80;91.40
1704;DHT22;849;48.780;9.216;2024-01-30T14:51:55;11.80;91.50
1704;DHT22;849;48.780;9.216;2024-01-30T14:54:39;11.80;91.70
1704;DHT22;849;48.780;9.216;2024-01-30T14:57:24;11.80;91.80
1704;DHT22;849;48.780;9.216;2024-01-30T15:00:09;11.80;92.00
1704;DHT22;849;48.780;9.216;2024-01-30T15:02:53;11.70;92.50
1704;DHT22;849;48.780;9.216;2024-01-30T15:05:37;11.70;92.90
1704;DHT22;849;48.780;9.216;2024-01-30T15:08:22;11.70;93.30
1704;DHT22;849;48.780;9.216;2024-01-30T15:11:06;11.70;93.80
1704;DHT22;849;48.780;9.216;2024-01-30T15:13:50;11.70;94.70
1704;DHT22;849;48.780;9.216;2024-01-30T15:16:35;11.60;96.00
1704;DHT22;849;48.780;9.216;2024-01-30T15:19:19;11.60;96.10
1704;DHT22;849;48.780;9.216;2024-01-30T15:22:03;11.60;96.30
1704;DHT22;849;48.780;9.216;2024-01-30T15:24:48;11.50;96.40
1704;DHT22;849;48.780;9.216;2024-01-30T15:27:32;11.50;97.20
1704;DHT22;849;48.780;9.216;2024-01-30T15:30:16;11.40;98.00
1704;DHT22;849;48.780;9.216;2024-01-30T15:33:00;11.40;99.00
1704;DHT22;849;48.780;9.216;2024-01-30T15:35:44;11.30;99.70
1704;DHT22;849;48.780;9.216;2024-01-30T15:38:28;11.20;99.90
1704;DHT22;849;48.780;9.216;2024-01-30T15:41:13;11.20;99.90
1704;DHT22;849;48.780;9.216;2024-01-30T15:43:57;11.10;99.90
1704;DHT22;849;48.780;9.216;2024-01-30T15:46:42;11.10;99.90
1704;DHT22;849;48.780;9.216;2024-01-30T15:49:26;11.00;99.90
1704;DHT22;849;48.780;9.216;2024-01-30T15:52:10;10.90;99.90
1704;DHT22;849;48.780;9.216;2024-01-30T15:54:58;10.90;99.90
1704;DHT22;849;48.780;9.216;2024-01-30T15:57:42;10.80;99.90
1704;DHT22;849;48.780;9.216;2024-01-30T16:00:27;10.80;99.90
1704;DHT22;849;48.780;9.216;2024-01-30T16:03:11;10.70;99.90
1704;DHT22;849;48.780;9.216;2024-01-30T16:05:55;10.60;99.90
1704;DHT22;849;48.780;9.216;2024-01-30T16:08:39;10.60;99.90
1704;DHT22;849;48.780;9.216;2024-01-30T16:11:25;10.60;99.90
1704;DHT22;849;48.780;9.216;2024-01-30T16:14:09;10.50;99.90
1704;DHT22;849;48.780;9.216;2024-01-30T16:16:53;10.50;99.90
1704;DHT22;849;48.780;9.216;2024-01-30T16:19:37;10.40;99.90
1704;DHT22;849;48.780;9.216;2024-01-30T16:22:21;10.30;99.90
1704;DHT22;849;48.780;9.216;2024-01-30T16:25:05;10.30;99.90
1704;DHT22;849;48.780;9.216;2024-01-30T16:27:49;10.30;99.90
1704;DHT22;849;48.780;9.216;2024-01-30T16:30:33;10.30;99.90
1704;DHT22;849;48.780;9.216;2024-01-30T16:33:17;10.20;99.90
1704;DHT22;849;48.780;9.216;2024-01-30T16:36:02;10.20;99.90
1704;DHT22;849;48.780;9.216;2024-01-30T16:38:47;10.20;99.90
1704;DHT22;849;48.780;9.216;2024-01-30T16:41:31;10.10;99.90
1704;DHT22;849;48.780;9.216;2024-01-30T16:44:15;10.10;99.90
1704;DHT22;849;48.780;9.216;2024-01-30T16:46:59;10.40;99.90
1704;DHT22;849;48.780;9.216;2024-01-30T16:49:43;10.00;99.90
1704;DHT22;849;48.780;9.216;2024-01-30T16:52:27;10.00;99.90
1704;DHT22;849;48.780;9.216;2024-01-30T16:55:11;10.00;99.90
1704;DHT22;849;48.780;9.216;2024-01-30T16:57:57;10.00;99.90
1704;DHT22;849;48.780;9.216;2024-01-30T17:00:41;9.90;99.90
1704;DHT22;849;48.780;9.216;2024-01-30T17:03:26;9.90;99.90
1704;DHT22;849;48.780;9.216;2024-01-30T17:06:13;9.90;99.90
1704;DHT22;849;48.780;9.216;2024-01-30T17:08:57;10.20;99.90
1704;DHT22;849;48.780;9.216;2024-01-30T17:11:41;9.90;99.90
1704;DHT22;849;48.780;9.216;2024-01-30T17:14:26;9.80;99.90
1704;DHT22;849;48.780;9.216;2024-01-30T17:17:12;9.80;99.90
1704;DHT22;849;48.780;9.216;2024-01-30T17:19:58;9.80;99.90
1704;DHT22;849;48.780;9.216;2024-01-30T17:22:42;9.80;99.90
1704;DHT22;849;48.780;9.216;2024-01-30T17:25:26;9.80;99.90
1704;DHT22;849;48.780;9.216;2024-01-30T17:28:10;9.80;99.90
1704;DHT22;849;48.780;9.216;2024-01-30T17:30:54;9.80;99.90
1704;DHT22;849;48.780;9.216;2024-01-30T17:33:38;9.80;99.90
1704;DHT22;849;48.780;9.216;2024-01-30T17:36:23;9.80;99.90
1704;DHT22;849;48.780;9.216;2024-01-30T17:39:09;9.80;99.90
1704;DHT22;849;48.780;9.216;2024-01-30T17:41:53;9.80;99.90
1704;DHT22;849;48.780;9.216;2024-01-30T17:44:37;9.80;99.90
1704;DHT22;849;48.780;9.216;2024-01-30T17:47:23;9.80;99.90
1704;DHT22;849;48.780;9.216;2024-01-30T17:50:08;9.80;99.90
1704;DHT22;849;48.780;9.216;2024-01-30T17:52:52;9.80;99.90
1704;DHT22;849;48.780;9.216;2024-01-30T17:55:37;9.70;99.90
1704;DHT22;849;48.780;9.216;2024-01-30T17:58:21;9.70;99.90
1704;DHT22;849;48.780;9.216;2024-01-30T18:01:07;9.70;99.90
1704;DHT22;849;48.780;9.216;2024-01-30T18:03:51;9.70;99.90
1704;DHT22;849;48.780;9.216;2024-01-30T18:06:39;9.70;99.90
1704;DHT22;849;48.780;9.216;2024-01-30T18:09:24;9.80;99.90
1704;DHT22;849;48.780;9.216;2024-01-30T18:12:09;9.80;99.90
1704;DHT22;849;48.780;9.216;2024-01-30T18:14:54;9.80;99.90
1704;DHT22;849;48.780;9.216;2024-01-30T18:17:38;9.80;99.90
1704;DHT22;849;48.780;9.216;2024-01-30T18:20:22;9.80;99.90
1704;DHT22;849;48.780;9.216;2024-01-30T18:23:07;9.70;99.90
1704;DHT22;849;48.780;9.216;2024-01-30T18:25:51;9.70;99.90